Time;durP1;ratioP1;P1;durP2;ratioP2;P2;SDS_P1;SDS_P2;PMS_P1;PMS_P2;Temp;Humidity;BMP_temperature;BMP_pressure;BME280_temperature;BME280_humidity;BME280_pressure;Samples;Min_cycle;Max_cycle;Signal;HPM_P1;HPM_P2
2021/06/02 00:02:54;;;;;;;2.03;1.53;;;;;;;16.18;46.04;101738.53;6216375;28;20690;-52
2021/06/02 00:06:15;;;;;;;4.30;1.50;;;;;;;16.25;46.03;101743.66;6208814;28;21288;-51
2021/06/02 00:09:38;;;;;;;2.30;2.10;;;;;;;16.16;46.20;101749.06;6201077;28;20229;-55
2021/06/02 00:12:58;;;;;;;1.53;1.10;;;;;;;16.16;46.29;101746.44;6212594;28;20233;-55
2021/06/02 00:16:20;;;;;;;2.87;2.00;;;;;;;16.22;46.40;101748.94;6213329;28;20229;-54
2021/06/02 00:19:41;;;;;;;1.43;1.33;;;;;;;16.21;46.46;101747.22;6211610;28;20238;-54
2021/06/02 00:23:01;;;;;;;1.67;1.30;;;;;;;16.04;46.81;101742.25;6211890;28;20244;-52
2021/06/02 00:26:22;;;;;;;2.30;1.70;;;;;;;16.14;46.90;101738.56;6206457;28;20607;-54
2021/06/02 00:29:44;;;;;;;2.13;1.70;;;;;;;16.26;46.60;101740.09;6190961;28;20616;-56
2021/06/02 00:33:06;;;;;;;1.50;1.40;;;;;;;15.85;47.59;101752.19;6215737;28;20229;-55
2021/06/02 00:36:29;;;;;;;2.77;1.43;;;;;;;15.99;47.21;101740.59;6207300;28;20229;-52
2021/06/02 00:39:50;;;;;;;1.63;1.50;;;;;;;15.99;47.29;101746.72;6209480;28;20233;-53
2021/06/02 00:43:13;;;;;;;1.97;0.87;;;;;;;16.02;47.31;101745.81;6213654;28;20229;-50
2021/06/02 00:46:36;;;;;;;1.40;0.97;;;;;;;15.63;48.17;101745.53;6207171;28;20534;-51
2021/06/02 00:49:58;;;;;;;1.33;1.23;;;;;;;15.70;48.54;101741.91;6212600;28;20229;-51
2021/06/02 00:53:19;;;;;;;0.80;0.80;;;;;;;15.69;48.44;101748.91;6217398;28;20229;-55
2021/06/02 00:56:46;;;;;;;1.57;1.00;;;;;;;15.81;48.20;101747.03;6206351;28;20221;-55
2021/06/02 01:00:09;;;;;;;2.10;1.53;;;;;;;15.80;48.50;101747.91;6212147;28;20766;-53
2021/06/02 01:03:33;;;;;;;2.37;1.50;;;;;;;15.88;48.03;101741.66;6199295;28;20253;-57
2021/06/02 01:06:55;;;;;;;2.40;1.33;;;;;;;15.87;48.36;101753.03;6202122;28;20570;-51
2021/06/02 01:10:18;;;;;;;1.90;1.43;;;;;;;15.85;48.22;101754.81;6211682;28;20237;-53
2021/06/02 01:13:42;;;;;;;2.33;1.27;;;;;;;15.68;48.78;101744.56;6212840;28;20234;-55
2021/06/02 01:17:04;;;;;;;1.80;1.40;;;;;;;15.71;49.03;101746.28;6207361;28;20241;-55
2021/06/02 01:20:27;;;;;;;1.00;0.90;;;;;;;15.76;48.69;101757.63;6208963;28;20643;-49
2021/06/02 01:23:50;;;;;;;3.13;1.27;;;;;;;15.65;49.26;101751.63;6213862;28;20314;-48
2021/06/02 01:27:13;;;;;;;3.53;1.30;;;;;;;15.59;49.82;101746.47;6208907;28;20241;-53
2021/06/02 01:30:35;;;;;;;1.47;1.10;;;;;;;15.61;49.62;101749.94;6199796;28;20324;-54
2021/06/02 01:34:07;;;;;;;2.03;0.83;;;;;;;15.61;49.50;101753.44;6205447;28;20226;-52
2021/06/02 01:37:49;;;;;;;1.97;1.17;;;;;;;15.60;49.85;101748.19;6205011;28;20228;-53
2021/06/02 01:41:27;;;;;;;2.17;1.33;;;;;;;15.48;50.29;101752.72;6209860;28;20225;-54
2021/06/02 01:45:27;;;;;;;3.30;1.30;;;;;;;15.36;50.64;101745.91;6204598;28;20618;-55
2021/06/02 01:48:57;;;;;;;2.10;1.07;;;;;;;15.44;50.34;101743.16;6206770;28;20236;-53
2021/06/02 01:53:05;;;;;;;2.00;1.07;;;;;;;15.49;50.33;101748.34;6216696;28;20224;-52
2021/06/02 01:57:11;;;;;;;1.37;0.90;;;;;;;15.33;50.80;101756.47;6199320;28;20236;-55
2021/06/02 02:00:43;;;;;;;1.80;1.30;;;;;;;14.97;51.85;101752.56;6193094;28;20233;-51
2021/06/02 02:04:28;;;;;;;2.07;1.83;;;;;;;15.10;51.34;101748.91;6188074;28;20236;-53
2021/06/02 02:08:10;;;;;;;1.43;1.33;;;;;;;14.90;51.67;101748.28;6206204;28;20233;-50
2021/06/02 02:11:36;;;;;;;1.10;1.00;;;;;;;15.11;51.44;101750.63;6184863;28;20318;-54
2021/06/02 02:15:20;;;;;;;1.03;1.00;;;;;;;15.14;51.39;101750.59;6209453;28;20331;-52
2021/06/02 02:18:48;;;;;;;1.17;1.07;;;;;;;15.06;51.53;101747.22;6204135;28;20824;-54
2021/06/02 02:22:26;;;;;;;1.73;1.40;;;;;;;15.14;51.47;101750.59;6208374;28;20233;-55
2021/06/02 02:25:58;;;;;;;1.50;1.40;;;;;;;15.19;51.67;101752.28;6207879;28;20228;-51
2021/06/02 02:29:32;;;;;;;1.70;1.30;;;;;;;15.33;51.10;101755.56;6212128;28;20260;-55
2021/06/02 02:33:09;;;;;;;2.53;1.27;;;;;;;15.24;51.47;101750.47;6206198;28;20237;-53
2021/06/02 02:36:35;;;;;;;1.50;1.10;;;;;;;15.14;51.63;101753.22;6176831;28;20233;-52
2021/06/02 02:40:02;;;;;;;1.97;1.40;;;;;;;15.16;51.56;101759.31;6206349;28;20681;-55
2021/06/02 02:43:38;;;;;;;1.23;1.00;;;;;;;15.07;52.17;101754.16;6211743;28;20311;-55
2021/06/02 02:47:04;;;;;;;3.10;1.40;;;;;;;15.09;52.24;101757.66;6205930;28;20232;-51
2021/06/02 02:50:32;;;;;;;1.20;1.10;;;;;;;15.11;52.06;101761.13;6212012;28;20225;-53
2021/06/02 02:54:01;;;;;;;1.73;1.00;;;;;;;15.08;52.92;101755.03;6205277;28;20413;-50
2021/06/02 02:57:32;;;;;;;1.63;1.53;;;;;;;15.17;52.31;101760.16;6209390;28;20320;-53
2021/06/02 03:01:00;;;;;;;10.57;9.57;;;;;;;15.22;52.15;101773.22;6185922;28;20599;-51
2021/06/02 03:04:23;;;;;;;4.40;4.00;;;;;;;15.04;52.99;101767.31;6196514;28;20763;-51
2021/06/02 03:07:50;;;;;;;2.80;2.20;;;;;;;15.20;52.29;101769.75;6186999;28;20510;-52
2021/06/02 03:11:16;;;;;;;7.97;2.13;;;;;;;15.11;52.70;101766.34;6198116;28;20515;-53
2021/06/02 03:14:48;;;;;;;3.40;2.50;;;;;;;15.14;52.15;101771.59;6193971;28;20627;-51
2021/06/02 03:18:36;;;;;;;1.77;1.67;;;;;;;14.98;52.61;101769.16;6210695;28;20244;-55
2021/06/02 03:22:02;;;;;;;1.50;1.40;;;;;;;14.91;52.85;101768.38;6210410;28;20244;-53
2021/06/02 03:25:27;;;;;;;1.87;1.63;;;;;;;14.92;52.82;101781.44;6205240;28;20678;-55
2021/06/02 03:29:06;;;;;;;1.67;1.57;;;;;;;15.10;52.51;101769.00;6207966;28;20602;-55
2021/06/02 03:32:50;;;;;;;1.50;1.40;;;;;;;15.06;52.57;101773.44;6206614;28;20229;-53
2021/06/02 03:36:20;;;;;;;2.83;1.50;;;;;;;15.15;52.10;101775.91;6206114;28;20611;-51
2021/06/02 03:39:49;;;;;;;1.73;1.63;;;;;;;15.18;51.80;101772.41;6209023;28;20246;-52
2021/06/02 03:43:23;;;;;;;1.77;1.63;;;;;;;15.12;51.96;101773.34;6204737;28;20228;-51
2021/06/02 03:46:54;;;;;;;1.70;1.60;;;;;;;15.05;52.21;101771.69;6203629;28;20225;-52
2021/06/02 03:50:18;;;;;;;2.50;1.70;;;;;;;15.09;51.89;101776.00;6207352;28;20229;-55
2021/06/02 03:54:04;;;;;;;1.83;1.53;;;;;;;15.01;52.26;101785.72;6211675;28;20229;-54
2021/06/02 03:57:33;;;;;;;3.67;1.83;;;;;;;14.99;52.33;101784.88;6205770;28;20216;-51
2021/06/02 04:01:20;;;;;;;2.13;1.73;;;;;;;15.18;51.73;101787.25;6210175;28;20494;-53
2021/06/02 04:04:50;;;;;;;2.10;1.87;;;;;;;15.14;52.31;101791.69;6204954;28;20237;-55
2021/06/02 04:08:23;;;;;;;2.03;1.53;;;;;;;15.39;51.82;101794.84;6210697;28;20225;-51
2021/06/02 04:11:50;;;;;;;2.27;2.07;;;;;;;15.55;51.40;101799.03;6211413;28;20225;-50
2021/06/02 04:15:13;;;;;;;1.87;1.50;;;;;;;15.60;51.47;101795.44;6210860;28;20221;-52
2021/06/02 04:18:36;;;;;;;2.60;2.20;;;;;;;15.62;51.89;101801.56;6204158;28;20233;-52
2021/06/02 04:22:03;;;;;;;2.57;1.70;;;;;;;15.59;52.23;101799.00;6213603;28;20319;-50
2021/06/02 04:25:25;;;;;;;4.73;1.90;;;;;;;15.34;53.14;101799.31;6211234;28;20256;-54
2021/06/02 04:28:47;;;;;;;3.30;1.87;;;;;;;15.54;52.59;101802.53;6210448;28;20316;-55
2021/06/02 04:32:08;;;;;;;2.27;2.07;;;;;;;15.84;51.83;101800.38;6212209;28;20610;-55
2021/06/02 04:35:32;;;;;;;2.57;1.97;;;;;;;15.82;52.16;101810.06;6210689;28;20594;-49
2021/06/02 04:38:53;;;;;;;2.23;1.57;;;;;;;15.44;53.28;101800.06;6213922;28;20667;-54
2021/06/02 04:42:14;;;;;;;3.57;2.30;;;;;;;15.24;54.08;101803.81;6213617;28;20237;-55
2021/06/02 04:45:45;;;;;;;2.53;2.07;;;;;;;15.15;54.12;101809.16;6208241;28;20237;-56
2021/06/02 04:49:05;;;;;;;2.47;2.27;;;;;;;15.40;53.96;101809.72;6210841;28;20232;-54
2021/06/02 04:53:20;;;;;;;3.77;2.63;;;;;;;15.39;53.97;101807.13;6201908;28;20237;-55
2021/06/02 04:57:16;;;;;;;2.93;2.13;;;;;;;15.49;53.94;101819.22;6197829;28;20248;-52
2021/06/02 05:01:09;;;;;;;3.27;2.87;;;;;;;15.80;53.21;101814.47;6202272;28;20630;-49
2021/06/02 05:05:04;;;;;;;5.10;2.73;;;;;;;16.01;52.79;101818.50;6207792;28;20229;-51
2021/06/02 05:09:01;;;;;;;5.40;2.50;;;;;;;16.07;52.73;101822.78;6199717;28;20252;-53
2021/06/02 05:12:55;;;;;;;2.50;2.20;;;;;;;15.64;54.23;101823.41;6202155;28;20271;-56
2021/06/02 05:16:41;;;;;;;2.97;2.40;;;;;;;15.55;54.67;101830.53;6203030;28;20713;-54
2021/06/02 05:25:13;;;;;;;3.30;2.73;;;;;;;16.00;53.92;101836.94;6210697;28;20602;-54
2021/06/02 05:29:21;;;;;;;3.27;2.73;;;;;;;15.67;55.12;101839.13;6209274;28;20217;-53
2021/06/02 05:33:32;;;;;;;3.00;2.80;;;;;;;15.71;55.06;101832.94;6143181;28;20322;-54
2021/06/02 05:37:30;;;;;;;6.63;2.70;;;;;;;15.98;54.47;101836.94;6183551;28;20217;-53
2021/06/02 05:41:02;;;;;;;3.33;2.63;;;;;;;15.92;55.15;101840.53;6197725;28;20244;-63
2021/06/02 05:45:11;;;;;;;5.33;2.90;;;;;;;16.15;54.74;101836.69;6201399;28;20317;-54
2021/06/02 05:48:56;;;;;;;5.73;2.53;;;;;;;16.11;54.20;101837.59;6156486;28;20242;-50
2021/06/02 05:52:43;;;;;;;4.50;2.83;;;;;;;16.03;54.73;101842.13;6199758;28;25123;-50
2021/06/02 05:56:54;;;;;;;3.07;2.47;;;;;;;16.12;54.71;101840.22;6207178;28;20240;-51
2021/06/02 06:00:41;;;;;;;2.97;2.70;;;;;;;16.19;54.56;101843.63;6205694;28;20630;-54
2021/06/02 06:04:49;;;;;;;6.87;3.10;;;;;;;16.58;53.99;101842.97;6204747;28;20739;-55
2021/06/02 06:09:02;;;;;;;24.40;8.77;;;;;;;16.71;53.49;101842.72;6159585;28;20226;-54
2021/06/02 06:13:00;;;;;;;8.57;4.50;;;;;;;16.58;53.43;101845.59;6211897;28;20233;-53
2021/06/02 06:16:47;;;;;;;5.97;2.73;;;;;;;16.47;53.35;101838.75;6193301;28;20627;-53
2021/06/02 06:20:43;;;;;;;3.17;2.40;;;;;;;16.40;53.77;101841.50;6195038;28;20233;-48
2021/06/02 06:24:08;;;;;;;3.50;2.70;;;;;;;16.78;53.02;101842.59;6201214;28;20244;-50
2021/06/02 06:27:36;;;;;;;5.00;2.87;;;;;;;16.66;52.73;101849.81;6206925;28;20261;-54
2021/06/02 06:30:58;;;;;;;3.87;2.67;;;;;;;16.72;53.06;101838.31;6202556;28;20920;-51
2021/06/02 06:34:22;;;;;;;4.77;3.23;;;;;;;17.02;52.73;101847.44;6196757;28;20256;-49
2021/06/02 06:37:45;;;;;;;3.70;2.67;;;;;;;16.95;52.75;101842.31;6205087;28;20237;-56
2021/06/02 06:41:07;;;;;;;5.10;3.03;;;;;;;17.30;51.92;101839.84;6197796;28;20240;-50
2021/06/02 06:44:29;;;;;;;5.00;3.17;;;;;;;17.54;51.70;101834.09;6207922;28;20237;-54
2021/06/02 06:47:51;;;;;;;4.63;3.17;;;;;;;17.52;51.93;101835.00;6201609;28;20228;-54
2021/06/02 06:51:15;;;;;;;2.87;2.47;;;;;;;17.44;51.44;101836.06;6198103;28;20236;-54
2021/06/02 06:54:39;;;;;;;3.73;2.60;;;;;;;17.71;50.46;101839.84;6204019;28;20225;-53
2021/06/02 06:57:59;;;;;;;3.20;2.60;;;;;;;17.53;50.97;101827.97;6199369;28;20233;-53
2021/06/02 07:01:20;;;;;;;2.63;2.40;;;;;;;16.93;52.27;101848.47;6191095;28;20308;-52
2021/06/02 07:04:42;;;;;;;2.83;2.43;;;;;;;17.12;52.00;101837.59;6200481;28;20642;-52
2021/06/02 07:08:06;;;;;;;4.00;2.53;;;;;;;17.06;52.11;101833.31;6200858;28;20602;-51
2021/06/02 07:11:27;;;;;;;3.93;2.77;;;;;;;17.19;51.83;101828.66;6203649;28;20237;-48
2021/06/02 07:14:49;;;;;;;7.00;2.23;;;;;;;17.52;51.16;101827.09;6206008;28;20611;-50
2021/06/02 07:18:09;;;;;;;5.57;3.00;;;;;;;17.90;49.97;101830.66;6205904;28;20225;-52
2021/06/02 07:21:30;;;;;;;4.73;2.80;;;;;;;17.54;50.58;101821.78;6207415;28;20228;-52
2021/06/02 07:24:54;;;;;;;3.70;3.33;;;;;;;18.26;49.59;101828.03;6197260;28;20240;-52
2021/06/02 07:28:21;;;;;;;3.50;2.57;;;;;;;18.89;52.23;101820.25;6207836;28;20233;-53
2021/06/02 07:31:42;;;;;;;3.47;2.60;;;;;;;18.68;48.32;101829.56;6203710;28;20244;-52
2021/06/02 07:35:03;;;;;;;5.17;2.67;;;;;;;18.96;49.74;101816.53;6200584;28;20233;-52
2021/06/02 07:38:24;;;;;;;6.40;2.37;;;;;;;19.19;48.93;101817.63;6202341;28;20230;-50
2021/06/02 07:41:45;;;;;;;4.77;2.33;;;;;;;19.17;47.12;101822.94;6205402;28;20221;-50
2021/06/02 07:45:07;;;;;;;3.95;2.50;;;;;;;18.91;47.88;101823.72;6204132;28;20584;-52
2021/06/02 07:48:30;;;;;;;4.17;2.30;;;;;;;19.43;47.00;101832.75;6208644;28;20238;-49
2021/06/02 07:51:51;;;;;;;6.28;2.95;;;;;;;19.76;48.18;101818.59;6211014;28;20229;-51
2021/06/02 07:55:13;;;;;;;3.03;2.70;;;;;;;20.29;46.43;101817.75;6204627;28;20234;-50
2021/06/02 07:58:34;;;;;;;4.05;2.53;;;;;;;20.51;44.73;101823.16;6207430;28;20236;-54
2021/06/02 08:01:54;;;;;;;3.83;2.28;;;;;;;19.82;45.75;101819.25;6202463;28;20272;-57
2021/06/02 08:05:15;;;;;;;4.90;2.20;;;;;;;19.70;45.72;101827.56;6207617;28;20229;-53
2021/06/02 08:08:36;;;;;;;3.72;2.22;;;;;;;19.88;45.09;101822.63;6211888;28;20253;-49
2021/06/02 08:11:57;;;;;;;4.55;2.83;;;;;;;20.33;44.38;101820.22;6209213;28;20491;-53
2021/06/02 08:15:19;;;;;;;2.53;2.00;;;;;;;19.82;45.39;101823.69;6209822;28;20237;-54
2021/06/02 08:18:40;;;;;;;4.63;1.80;;;;;;;20.29;44.42;101815.09;6206886;28;20545;-51
2021/06/02 08:22:00;;;;;;;2.97;1.98;;;;;;;20.35;44.04;101817.53;6203217;28;20773;-53
2021/06/02 08:25:20;;;;;;;2.78;2.35;;;;;;;20.30;43.90;101814.16;6202337;28;20233;-52
2021/06/02 08:28:41;;;;;;;7.53;2.33;;;;;;;19.86;44.49;101812.94;6201777;28;20316;-52
2021/06/02 08:32:04;;;;;;;6.47;2.83;;;;;;;20.23;44.16;101816.16;6205642;28;20309;-51
2021/06/02 08:35:24;;;;;;;2.70;2.50;;;;;;;20.30;43.97;101811.53;6210376;28;20238;-47
2021/06/02 08:38:44;;;;;;;2.97;2.10;;;;;;;20.39;43.60;101806.78;6205382;28;20820;-54
2021/06/02 08:42:05;;;;;;;3.03;1.98;;;;;;;20.15;44.08;101807.63;6194795;28;20241;-50
2021/06/02 08:45:26;;;;;;;3.15;2.40;;;;;;;20.54;43.65;101813.34;6208083;28;20416;-52
2021/06/02 08:48:49;;;;;;;3.47;2.60;;;;;;;20.95;42.61;101807.50;6203627;28;20221;-53
2021/06/02 08:52:10;;;;;;;3.10;2.70;;;;;;;21.18;42.02;101806.66;6204536;28;20663;-51
2021/06/02 08:55:30;;;;;;;3.25;2.40;;;;;;;20.91;41.68;101814.69;6203085;28;20225;-52
2021/06/02 08:58:51;;;;;;;3.15;2.50;;;;;;;21.24;40.94;101801.13;6205057;28;20237;-51
2021/06/02 09:02:12;;;;;;;4.20;2.00;;;;;;;21.21;41.30;101810.06;6206990;28;20256;-51
2021/06/02 09:05:34;;;;;;;3.17;2.50;;;;;;;22.08;39.83;101802.22;6207645;28;20267;-51
2021/06/02 09:08:54;;;;;;;4.25;2.38;;;;;;;21.85;39.96;101791.69;6206054;28;20317;-53
2021/06/02 09:12:15;;;;;;;3.33;2.67;;;;;;;22.09;39.52;101805.72;6208257;28;20624;-53
2021/06/02 09:15:36;;;;;;;4.20;2.78;;;;;;;21.93;39.21;101790.47;6201194;28;20689;-53
2021/06/02 09:19:02;;;;;;;3.15;2.53;;;;;;;21.99;39.52;101792.00;6211395;28;20261;-51
2021/06/02 09:22:24;;;;;;;3.85;3.45;;;;;;;21.36;40.26;101792.69;6192944;28;20244;-54
2021/06/02 09:25:44;;;;;;;2.78;2.58;;;;;;;21.69;39.54;101788.81;6208452;28;20228;-54
2021/06/02 09:29:09;;;;;;;3.25;2.85;;;;;;;22.36;38.68;101801.09;6209855;28;20229;-54
2021/06/02 09:32:41;;;;;;;2.90;2.50;;;;;;;22.70;38.33;101789.84;6210438;28;20607;-53
2021/06/02 09:36:07;;;;;;;3.20;2.53;;;;;;;23.31;37.81;101790.66;6205457;28;20229;-52
2021/06/02 09:39:28;;;;;;;4.95;2.50;;;;;;;22.73;38.86;101795.00;6204200;28;20229;-53
2021/06/02 09:42:50;;;;;;;4.40;2.50;;;;;;;21.89;39.68;101791.50;6202001;28;20788;-66
2021/06/02 09:46:13;;;;;;;3.97;2.65;;;;;;;22.06;39.17;101804.06;6187943;28;20650;-65
2021/06/02 09:49:48;;;;;;;2.47;2.33;;;;;;;22.32;39.27;101795.03;6209069;28;20221;-66
2021/06/02 09:53:09;;;;;;;4.60;1.58;;;;;;;22.35;38.33;101794.03;6213705;28;20233;-65
2021/06/02 09:56:36;;;;;;;2.58;2.10;;;;;;;21.54;39.26;101784.97;6202753;28;20515;-63
2021/06/02 09:59:59;;;;;;;2.53;2.33;;;;;;;21.42;39.13;101786.28;6197753;28;20232;-65
2021/06/02 10:03:21;;;;;;;3.55;2.35;;;;;;;22.15;39.09;101786.91;6207389;28;20229;-66
2021/06/02 10:06:42;;;;;;;3.35;2.28;;;;;;;22.38;38.24;101778.00;6205330;28;20561;-65
2021/06/02 10:10:11;;;;;;;6.85;2.58;;;;;;;22.39;38.75;101785.91;6206405;28;20232;-64
2021/06/02 10:13:33;;;;;;;11.55;2.70;;;;;;;22.71;38.01;101780.09;6193603;28;20229;-62
2021/06/02 10:16:54;;;;;;;4.63;2.50;;;;;;;22.86;38.22;101781.19;6194130;28;20233;-65
2021/06/02 10:20:15;;;;;;;3.40;2.38;;;;;;;22.13;38.51;101789.63;6201240;28;20407;-65
2021/06/02 10:23:40;;;;;;;4.65;2.42;;;;;;;22.17;38.19;101787.69;6192108;28;20238;-66
2021/06/02 10:27:02;;;;;;;2.15;1.95;;;;;;;22.46;37.60;101778.50;6197208;28;20233;-66
2021/06/02 10:30:26;;;;;;;4.70;2.13;;;;;;;23.35;36.66;101782.44;6193428;28;20237;-65
2021/06/02 10:33:46;;;;;;;2.63;1.77;;;;;;;23.87;35.72;101783.56;6205451;28;20229;-64
2021/06/02 10:37:09;;;;;;;2.42;2.22;;;;;;;23.60;34.81;101775.97;6206607;28;20260;-65
2021/06/02 10:40:31;;;;;;;5.00;2.38;;;;;;;22.89;36.00;101787.22;6208903;28;20229;-65
2021/06/02 10:43:54;;;;;;;2.83;1.75;;;;;;;23.16;36.57;101774.47;6209339;28;20232;-65
2021/06/02 10:47:21;;;;;;;3.25;1.55;;;;;;;23.18;36.75;101767.31;6198138;28;21709;-65
2021/06/02 10:50:43;;;;;;;5.03;1.92;;;;;;;23.17;36.58;101768.25;6199447;28;20233;-64
2021/06/02 10:54:05;;;;;;;4.80;2.65;;;;;;;23.16;36.21;101769.16;6205670;28;20232;-65
2021/06/02 10:57:25;;;;;;;2.10;1.60;;;;;;;23.26;35.59;101761.63;6193698;28;20237;-64
2021/06/02 11:00:48;;;;;;;2.03;1.83;;;;;;;23.65;35.26;101763.31;6194555;28;20246;-65
2021/06/02 11:04:13;;;;;;;3.05;2.08;;;;;;;23.19;35.83;101768.19;6203043;28;20241;-65
2021/06/02 11:07:36;;;;;;;2.60;1.88;;;;;;;23.34;36.37;101770.13;6197243;28;20276;-63
2021/06/02 11:10:56;;;;;;;2.67;2.30;;;;;;;23.50;35.39;101758.75;6193133;28;20237;-66
2021/06/02 11:14:26;;;;;;;3.65;2.10;;;;;;;24.25;34.96;101764.78;6199512;28;20253;-64
2021/06/02 11:18:22;;;;;;;3.20;2.90;;;;;;;23.12;35.44;101780.88;6202125;28;20339;-67
2021/06/02 11:21:58;;;;;;;2.90;2.35;;;;;;;23.53;35.53;101769.22;6199167;28;20233;-66
2021/06/02 11:25:21;;;;;;;3.65;2.47;;;;;;;24.43;33.80;101765.59;6179640;28;20233;-65
2021/06/02 11:28:43;;;;;;;3.20;2.63;;;;;;;24.14;34.80;101760.88;6205740;28;20237;-67
2021/06/02 11:32:14;;;;;;;2.60;2.40;;;;;;;23.58;35.77;101756.56;6210960;28;20244;-64
2021/06/02 11:35:59;;;;;;;6.30;3.63;;;;;;;23.97;35.56;101764.38;6200250;28;20233;-65
2021/06/02 11:39:21;;;;;;;5.28;3.13;;;;;;;23.96;35.71;101767.13;6208733;28;20229;-68
2021/06/02 11:42:43;;;;;;;2.60;2.40;;;;;;;23.61;35.65;101761.72;6190624;28;20233;-64
2021/06/02 11:46:04;;;;;;;2.53;2.20;;;;;;;23.46;35.82;101755.38;6197685;28;20229;-68
2021/06/02 11:49:26;;;;;;;4.85;2.05;;;;;;;24.75;34.54;101754.13;6212402;28;20233;-65
2021/06/02 11:52:54;;;;;;;3.25;2.20;;;;;;;25.17;33.93;101740.38;6191900;28;20237;-54
2021/06/02 11:56:19;;;;;;;4.38;3.42;;;;;;;24.41;34.75;101751.53;6191446;28;20622;-55
2021/06/02 11:59:42;;;;;;;3.45;2.80;;;;;;;23.01;36.50;101740.63;6209656;28;20225;-55
2021/06/02 12:03:04;;;;;;;4.78;2.65;;;;;;;23.85;36.00;101753.53;6198292;28;20284;-51
2021/06/02 12:06:34;;;;;;;4.07;3.25;;;;;;;23.58;35.49;101745.94;6206999;28;20248;-54
2021/06/02 12:09:56;;;;;;;3.90;3.60;;;;;;;23.54;35.46;101747.88;6210263;28;20245;-55
2021/06/02 12:13:19;;;;;;;4.53;3.13;;;;;;;22.50;37.24;101750.91;6213317;28;20232;-56
2021/06/02 12:16:40;;;;;;;3.25;2.80;;;;;;;23.14;36.34;101747.13;6195334;28;20816;-51
2021/06/02 12:20:04;;;;;;;3.63;2.97;;;;;;;23.93;35.93;101754.84;6208501;28;20540;-52
2021/06/02 12:23:25;;;;;;;3.30;2.70;;;;;;;23.66;36.25;101749.06;6204285;28;20257;-54
2021/06/02 12:26:47;;;;;;;4.72;2.92;;;;;;;24.20;35.72;101742.88;6202426;28;20241;-55
2021/06/02 12:30:13;;;;;;;3.22;2.65;;;;;;;24.56;34.87;101743.63;6196921;28;20233;-56
2021/06/02 12:33:33;;;;;;;3.70;3.00;;;;;;;24.86;34.37;101729.59;6207260;28;20237;-53
2021/06/02 12:36:54;;;;;;;3.33;3.13;;;;;;;25.49;34.62;101730.56;6198443;28;20313;-54
2021/06/02 12:40:17;;;;;;;3.70;3.50;;;;;;;25.04;34.01;101740.19;6208702;28;20233;-56
2021/06/02 12:43:39;;;;;;;8.65;3.75;;;;;;;25.99;33.76;101733.91;6187295;28;20243;-53
2021/06/02 12:47:04;;;;;;;3.72;3.03;;;;;;;26.45;32.66;101734.66;6209872;28;20536;-56
2021/06/02 12:50:46;;;;;;;3.40;3.03;;;;;;;25.88;33.18;101740.72;6205898;28;20403;-52
2021/06/02 12:54:15;;;;;;;3.92;3.03;;;;;;;25.66;33.36;101733.09;6202430;28;20392;-52
2021/06/02 12:57:35;;;;;;;3.45;3.15;;;;;;;25.55;33.65;101735.53;6205382;28;20447;-53
2021/06/02 13:00:56;;;;;;;3.63;2.65;;;;;;;25.03;34.58;101734.00;6205309;28;20865;-52
2021/06/02 13:04:18;;;;;;;4.25;3.88;;;;;;;26.51;33.19;101720.91;6197231;28;21650;-53
2021/06/02 13:07:41;;;;;;;3.83;3.45;;;;;;;25.43;34.50;101725.56;6205437;28;20241;-53
2021/06/02 13:11:05;;;;;;;3.95;3.58;;;;;;;26.95;32.15;101726.22;6208345;28;20229;-54
2021/06/02 13:14:34;;;;;;;3.30;2.60;;;;;;;29.14;28.33;101718.47;6211478;28;20237;-51
2021/06/02 13:17:55;;;;;;;4.97;3.50;;;;;;;31.19;26.11;101735.75;6200899;28;20236;-55
2021/06/02 13:21:20;;;;;;;6.20;4.25;;;;;;;30.31;26.71;101725.75;6210291;28;20233;-55
2021/06/02 13:24:41;;;;;;;4.00;3.60;;;;;;;30.61;26.09;101718.91;6176243;28;20256;-52
2021/06/02 13:28:03;;;;;;;5.00;4.60;;;;;;;31.16;26.19;101716.31;6201511;28;20272;-55
2021/06/02 13:31:36;;;;;;;3.50;3.20;;;;;;;31.52;25.66;101719.63;6206609;28;20237;-55
2021/06/02 13:34:57;;;;;;;2.95;2.75;;;;;;;31.61;24.91;101712.63;6201296;28;20245;-56
2021/06/02 13:38:27;;;;;;;3.63;3.33;;;;;;;30.47;26.79;101716.47;6207879;28;20236;-55
2021/06/02 13:41:58;;;;;;;4.18;3.47;;;;;;;28.57;29.54;101722.53;6202635;28;20225;-52
2021/06/02 13:45:19;;;;;;;4.25;3.05;;;;;;;30.02;27.02;101712.72;6199311;28;20233;-54
2021/06/02 13:48:41;;;;;;;5.05;3.15;;;;;;;28.33;28.26;101719.75;6185820;28;20232;-54
2021/06/02 13:52:03;;;;;;;3.70;3.28;;;;;;;28.71;28.54;101713.50;6200882;28;20241;-53
2021/06/02 13:55:25;;;;;;;3.28;3.08;;;;;;;29.28;28.33;101706.72;6189394;28;20248;-55
2021/06/02 13:58:45;;;;;;;5.15;3.65;;;;;;;29.01;28.57;101715.78;6203414;28;20232;-54
2021/06/02 14:02:07;;;;;;;4.20;3.85;;;;;;;28.95;28.40;101699.31;6200792;28;20252;-52
2021/06/02 14:05:27;;;;;;;9.30;3.85;;;;;;;27.68;31.14;101718.78;6206368;28;20233;-54
2021/06/02 14:08:48;;;;;;;4.13;3.75;;;;;;;28.18;30.51;101720.81;6202918;28;20245;-54
2021/06/02 14:12:12;;;;;;;6.20;4.55;;;;;;;27.14;31.38;101712.53;6205329;28;20229;-53
2021/06/02 14:15:32;;;;;;;3.08;2.88;;;;;;;26.12;32.51;101716.22;6200500;28;20548;-52
2021/06/02 14:18:54;;;;;;;3.50;3.20;;;;;;;27.71;31.44;101706.16;6209029;28;20257;-51
2021/06/02 14:22:15;;;;;;;4.72;3.15;;;;;;;27.32;30.85;101699.81;6201514;28;20232;-53
2021/06/02 14:25:36;;;;;;;3.28;2.97;;;;;;;26.00;32.57;101714.25;6207418;28;20623;-54
2021/06/02 14:28:57;;;;;;;4.55;3.30;;;;;;;25.65;33.96;101703.84;6208423;28;20229;-56
2021/06/02 14:32:21;;;;;;;3.35;2.92;;;;;;;25.76;33.29;101704.06;6209091;28;20235;-50
2021/06/02 14:35:41;;;;;;;3.08;2.80;;;;;;;25.24;34.73;101702.66;6196408;28;20229;-55
2021/06/02 14:39:06;;;;;;;4.05;3.63;;;;;;;26.20;33.15;101695.25;6208323;28;20558;-55
2021/06/02 14:42:26;;;;;;;4.10;2.75;;;;;;;26.19;33.24;101704.22;6209814;28;20225;-54
2021/06/02 14:45:48;;;;;;;3.13;2.83;;;;;;;25.79;34.38;101708.38;6203684;28;20232;-55
2021/06/02 14:49:10;;;;;;;4.22;3.92;;;;;;;27.15;32.77;101699.09;6206190;28;20317;-56
2021/06/02 14:52:31;;;;;;;3.22;2.30;;;;;;;27.15;32.54;101690.22;6195012;28;20229;-51
2021/06/02 14:55:52;;;;;;;3.63;3.30;;;;;;;27.78;32.21;101711.00;6195043;28;20324;-56
2021/06/02 14:59:13;;;;;;;4.00;3.33;;;;;;;28.14;31.04;101703.25;6203870;28;20236;-54
2021/06/02 15:02:35;;;;;;;4.45;3.70;;;;;;;28.04;31.16;101698.53;6202681;28;20237;-55
2021/06/02 15:05:55;;;;;;;4.20;2.78;;;;;;;28.12;31.54;101695.31;6207260;28;20241;-54
2021/06/02 15:09:16;;;;;;;3.85;3.30;;;;;;;28.56;31.09;101704.75;6203649;28;20233;-54
2021/06/02 15:12:37;;;;;;;3.80;3.50;;;;;;;27.51;31.96;101700.34;6205818;28;20232;-56
2021/06/02 15:16:00;;;;;;;4.15;3.38;;;;;;;27.67;32.31;101706.34;6207389;28;20241;-54
2021/06/02 15:19:22;;;;;;;4.93;4.53;;;;;;;28.35;31.50;101700.88;6193091;28;20237;-56
2021/06/02 15:22:42;;;;;;;4.55;4.15;;;;;;;28.81;30.94;101682.41;6203270;28;20228;-56
2021/06/02 15:26:03;;;;;;;3.05;2.85;;;;;;;28.68;30.77;101686.94;6199352;28;20601;-51
2021/06/02 15:29:40;;;;;;;4.57;3.10;;;;;;;28.11;31.42;101688.25;6191129;28;20237;-55
2021/06/02 15:33:04;;;;;;;5.38;4.60;;;;;;;28.00;31.64;101699.69;6210165;28;20245;-54
2021/06/02 15:36:27;;;;;;;2.92;2.67;;;;;;;27.78;31.05;101702.97;6208457;28;20214;-54
2021/06/02 15:39:48;;;;;;;11.18;3.30;;;;;;;27.18;32.39;101698.03;6204651;28;20576;-56
2021/06/02 15:43:08;;;;;;;4.88;3.25;;;;;;;27.28;31.83;101692.00;6206191;28;20241;-52
2021/06/02 15:46:29;;;;;;;3.33;3.13;;;;;;;27.64;31.12;101687.81;6203064;28;20233;-55
2021/06/02 15:49:50;;;;;;;5.38;3.72;;;;;;;27.97;30.49;101694.53;6204473;28;20517;-52
2021/06/02 15:53:20;;;;;;;3.08;2.80;;;;;;;28.03;30.56;101686.13;6210463;28;20243;-56
2021/06/02 15:56:40;;;;;;;4.50;3.72;;;;;;;28.80;29.90;101686.03;6198358;28;20233;-52
2021/06/02 16:00:05;;;;;;;3.20;3.00;;;;;;;28.00;30.79;101670.25;6203026;28;20233;-53
2021/06/02 16:03:32;;;;;;;4.45;3.92;;;;;;;26.04;33.17;101681.97;6202319;28;20237;-54
2021/06/02 16:06:53;;;;;;;4.07;3.60;;;;;;;25.92;34.10;101675.56;6209178;28;20240;-53
2021/06/02 16:10:16;;;;;;;3.83;3.50;;;;;;;25.26;35.25;101682.09;6205887;28;20233;-54